sensor_id;sensor_type;location;lat;lon;timestamp;pressure;altitude;pressure_sealevel;temperature;humidity
63500;BME280;49654;51.142;14.924;2023-01-28T00:01:13;99937.16;;;2.39;80.60
63500;BME280;49654;51.142;14.924;2023-01-28T00:03:41;99912.78;;;2.33;80.22
63500;BME280;49654;51.142;14.924;2023-01-28T00:06:11;99934.69;;;2.63;80.27
63500;BME280;49654;51.142;14.924;2023-01-28T00:08:38;99878.31;;;2.24;80.16
63500;BME280;49654;51.142;14.924;2023-01-28T00:11:06;99907.63;;;2.46;80.40
63500;BME280;49654;51.142;14.924;2023-01-28T00:13:34;99858.03;;;2.21;79.45
63500;BME280;49654;51.142;14.924;2023-01-28T00:16:02;99825.97;;;1.90;79.85
63500;BME280;49654;51.142;14.924;2023-01-28T00:18:30;99906.31;;;2.40;79.86
63500;BME280;49654;51.142;14.924;2023-01-28T00:21:01;99847.09;;;2.07;79.96
63500;BME280;49654;51.142;14.924;2023-01-28T00:23:31;99905.78;;;2.35;79.65
63500;BME280;49654;51.142;14.924;2023-01-28T00:25:59;99945.75;;;2.63;79.85
63500;BME280;49654;51.142;14.924;2023-01-28T00:28:26;99808.88;;;1.78;79.86
63500;BME280;49654;51.142;14.924;2023-01-28T00:30:53;99917.06;;;2.33;80.29
63500;BME280;49654;51.142;14.924;2023-01-28T00:33:20;99903.75;;;2.28;80.32
63500;BME280;49654;51.142;14.924;2023-01-28T00:35:47;99916.03;;;2.48;80.31
63500;BME280;49654;51.142;14.924;2023-01-28T00:38:24;99798.13;;;1.60;79.94
63500;BME280;49654;51.142;14.924;2023-01-28T00:40:51;99906.63;;;2.23;80.28
63500;BME280;49654;51.142;14.924;2023-01-28T00:43:18;99870.16;;;2.07;80.48
63500;BME280;49654;51.142;14.924;2023-01-28T00:45:45;99934.19;;;2.45;80.59
63500;BME280;49654;51.142;14.924;2023-01-28T00:48:12;99929.78;;;2.47;80.34
63500;BME280;49654;51.142;14.924;2023-01-28T00:50:39;99912.88;;;2.44;80.02
63500;BME280;49654;51.142;14.924;2023-01-28T00:53:06;99893.28;;;2.31;79.70
63500;BME280;49654;51.142;14.924;2023-01-28T00:55:34;99912.34;;;2.39;79.67
63500;BME280;49654;51.142;14.924;2023-01-28T00:58:01;99866.97;;;2.16;79.80
63500;BME280;49654;51.142;14.924;2023-01-28T01:00:28;99933.97;;;2.61;79.92
63500;BME280;49654;51.142;14.924;2023-01-28T01:02:55;99874.66;;;2.16;79.69
63500;BME280;49654;51.142;14.924;2023-01-28T01:05:22;99869.63;;;1.89;80.01
63500;BME280;49654;51.142;14.924;2023-01-28T01:07:49;99875.66;;;1.88;80.64
63500;BME280;49654;51.142;14.924;2023-01-28T01:10:18;99943.72;;;2.17;80.34
63500;BME280;49654;51.142;14.924;2023-01-28T01:12:47;99910.09;;;2.09;80.60
63500;BME280;49654;51.142;14.924;2023-01-28T01:15:14;99854.13;;;1.65;80.26
63500;BME280;49654;51.142;14.924;2023-01-28T01:17:45;99913.78;;;2.18;80.57
63500;BME280;49654;51.142;14.924;2023-01-28T01:20:14;99936.34;;;2.38;80.34
63500;BME280;49654;51.142;14.924;2023-01-28T01:22:41;99839.19;;;1.71;79.84
63500;BME280;49654;51.142;14.924;2023-01-28T01:25:09;99847.16;;;1.67;78.97
63500;BME280;49654;51.142;14.924;2023-01-28T01:27:37;99887.16;;;1.95;79.37
63500;BME280;49654;51.142;14.924;2023-01-28T01:30:06;99929.16;;;2.18;79.66
63500;BME280;49654;51.142;14.924;2023-01-28T01:32:34;99912.56;;;2.11;79.78
63500;BME280;49654;51.142;14.924;2023-01-28T01:35:03;99868.09;;;1.86;79.53
63500;BME280;49654;51.142;14.924;2023-01-28T01:37:31;99948.75;;;2.32;79.77
63500;BME280;49654;51.142;14.924;2023-01-28T01:39:58;99950.41;;;2.33;79.65
63500;BME280;49654;51.142;14.924;2023-01-28T01:42:26;99941.78;;;2.34;79.30
63500;BME280;49654;51.142;14.924;2023-01-28T01:44:59;99924.25;;;2.02;79.63
63500;BME280;49654;51.142;14.924;2023-01-28T01:47:32;99948.13;;;2.15;79.94
63500;BME280;49654;51.142;14.924;2023-01-28T01:50:07;99936.16;;;2.16;79.65
63500;BME280;49654;51.142;14.924;2023-01-28T01:52:35;99871.47;;;1.87;79.34
63500;BME280;49654;51.142;14.924;2023-01-28T01:55:06;99956.22;;;2.35;79.27
63500;BME280;49654;51.142;14.924;2023-01-28T01:57:37;99953.28;;;2.28;79.18
63500;BME280;49654;51.142;14.924;2023-01-28T02:00:05;99890.44;;;1.84;79.25
63500;BME280;49654;51.142;14.924;2023-01-28T02:02:37;99928.75;;;2.11;79.24
63500;BME280;49654;51.142;14.924;2023-01-28T02:05:06;99950.69;;;2.15;79.02
63500;BME280;49654;51.142;14.924;2023-01-28T02:07:34;99958.41;;;2.28;78.92
63500;BME280;49654;51.142;14.924;2023-01-28T02:10:03;99957.47;;;2.29;78.47
63500;BME280;49654;51.142;14.924;2023-01-28T02:12:33;99937.16;;;2.00;78.36
63500;BME280;49654;51.142;14.924;2023-01-28T02:15:03;99823.53;;;1.23;78.79
63500;BME280;49654;51.142;14.924;2023-01-28T02:17:32;99942.38;;;1.99;79.27
63500;BME280;49654;51.142;14.924;2023-01-28T02:20:02;99967.91;;;2.26;78.80
63500;BME280;49654;51.142;14.924;2023-01-28T02:22:45;99893.94;;;1.56;78.60
63500;BME280;49654;51.142;14.924;2023-01-28T02:25:49;99967.06;;;2.00;78.96
63500;BME280;49654;51.142;14.924;2023-01-28T02:28:28;99929.72;;;1.70;79.03
63500;BME280;49654;51.142;14.924;2023-01-28T02:30:58;99944.28;;;1.83;79.01
63500;BME280;49654;51.142;14.924;2023-01-28T02:33:30;99898.75;;;1.48;79.03
63500;BME280;49654;51.142;14.924;2023-01-28T02:36:04;99944.72;;;1.89;79.56
63500;BME280;49654;51.142;14.924;2023-01-28T02:38:37;99915.59;;;1.78;78.94
63500;BME280;49654;51.142;14.924;2023-01-28T02:41:11;99907.16;;;1.50;78.90
63500;BME280;49654;51.142;14.924;2023-01-28T02:43:42;99953.03;;;1.93;79.06
63500;BME280;49654;51.142;14.924;2023-01-28T02:46:14;99961.13;;;1.99;78.78
63500;BME280;49654;51.142;14.924;2023-01-28T02:49:01;99957.56;;;2.02;78.68
63500;BME280;49654;51.142;14.924;2023-01-28T02:51:36;99954.16;;;1.89;78.89
63500;BME280;49654;51.142;14.924;2023-01-28T02:54:10;99956.78;;;1.87;79.09
63500;BME280;49654;51.142;14.924;2023-01-28T02:56:42;99958.44;;;1.88;78.52
63500;BME280;49654;51.142;14.924;2023-01-28T02:59:19;99959.56;;;1.84;78.83
63500;BME280;49654;51.142;14.924;2023-01-28T03:02:06;99961.50;;;1.81;78.88
63500;BME280;49654;51.142;14.924;2023-01-28T03:04:37;99962.75;;;1.88;78.51
63500;BME280;49654;51.142;14.924;2023-01-28T03:07:06;99946.66;;;1.86;79.22
63500;BME280;49654;51.142;14.924;2023-01-28T03:09:35;99962.53;;;1.91;78.29
63500;BME280;49654;51.142;14.924;2023-01-28T03:12:04;99965.72;;;1.94;78.08
63500;BME280;49654;51.142;14.924;2023-01-28T03:14:54;99969.47;;;2.16;77.66
63500;BME280;49654;51.142;14.924;2023-01-28T03:17:43;99949.47;;;2.08;77.34
63500;BME280;49654;51.142;14.924;2023-01-28T03:20:42;99961.56;;;2.06;77.54
63500;BME280;49654;51.142;14.924;2023-01-28T03:23:32;99960.59;;;1.82;77.66
63500;BME280;49654;51.142;14.924;2023-01-28T03:26:21;99964.44;;;1.74;77.73
63500;BME280;49654;51.142;14.924;2023-01-28T03:29:11;99953.50;;;1.72;78.29
63500;BME280;49654;51.142;14.924;2023-01-28T03:31:59;99980.59;;;1.89;78.57
63500;BME280;49654;51.142;14.924;2023-01-28T03:34:44;99982.84;;;1.94;78.21
63500;BME280;49654;51.142;14.924;2023-01-28T03:37:30;99975.06;;;1.95;77.88
63500;BME280;49654;51.142;14.924;2023-01-28T03:40:01;99904.72;;;1.21;78.05
63500;BME280;49654;51.142;14.924;2023-01-28T03:42:30;99995.91;;;1.77;77.93
63500;BME280;49654;51.142;14.924;2023-01-28T03:44:57;100000.63;;;1.83;78.34
63500;BME280;49654;51.142;14.924;2023-01-28T03:47:29;99979.00;;;1.74;78.04
63500;BME280;49654;51.142;14.924;2023-01-28T03:49:57;99995.69;;;1.80;78.00
63500;BME280;49654;51.142;14.924;2023-01-28T03:52:27;100001.00;;;1.64;78.53
63500;BME280;49654;51.142;14.924;2023-01-28T03:54:55;99991.69;;;1.75;78.20
63500;BME280;49654;51.142;14.924;2023-01-28T03:57:24;100003.50;;;1.78;78.62
63500;BME280;49654;51.142;14.924;2023-01-28T03:59:51;100008.63;;;1.78;78.47
63500;BME280;49654;51.142;14.924;2023-01-28T04:02:20;99998.91;;;1.83;78.40
63500;BME280;49654;51.142;14.924;2023-01-28T04:04:49;99879.88;;;1.09;78.18
63500;BME280;49654;51.142;14.924;2023-01-28T04:07:16;100003.53;;;1.91;78.03
63500;BME280;49654;51.142;14.924;2023-01-28T04:09:43;99998.59;;;1.88;78.08
63500;BME280;49654;51.142;14.924;2023-01-28T04:12:10;100000.97;;;1.91;77.97
63500;BME280;49654;51.142;14.924;2023-01-28T04:14:37;100009.72;;;1.74;77.69
63500;BME280;49654;51.142;14.924;2023-01-28T04:17:05;100014.31;;;1.69;77.97
63500;BME280;49654;51.142;14.924;2023-01-28T04:19:35;99989.19;;;1.34;78.81
63500;BME280;49654;51.142;14.924;2023-01-28T04:22:05;100011.13;;;1.38;79.08
63500;BME280;49654;51.142;14.924;2023-01-28T04:24:33;99949.59;;;1.13;79.34
63500;BME280;49654;51.142;14.924;2023-01-28T04:26:59;100013.88;;;1.62;78.85
63500;BME280;49654;51.142;14.924;2023-01-28T04:29:26;100011.75;;;1.69;78.76
63500;BME280;49654;51.142;14.924;2023-01-28T04:31:53;99992.69;;;1.60;78.85
63500;BME280;49654;51.142;14.924;2023-01-28T04:34:21;100021.22;;;1.81;78.48
63500;BME280;49654;51.142;14.924;2023-01-28T04:36:47;100017.22;;;1.77;78.08
63500;BME280;49654;51.142;14.924;2023-01-28T04:39:16;100020.44;;;1.66;78.23
63500;BME280;49654;51.142;14.924;2023-01-28T04:41:43;100020.78;;;1.47;78.76
63500;BME280;49654;51.142;14.924;2023-01-28T04:44:10;100023.06;;;1.52;78.86
63500;BME280;49654;51.142;14.924;2023-01-28T04:46:38;100025.97;;;1.60;78.85
63500;BME280;49654;51.142;14.924;2023-01-28T04:49:05;99998.75;;;1.45;78.63
63500;BME280;49654;51.142;14.924;2023-01-28T04:51:32;100020.03;;;1.60;78.43
63500;BME280;49654;51.142;14.924;2023-01-28T04:53:59;100030.91;;;1.49;78.24
63500;BME280;49654;51.142;14.924;2023-01-28T04:56:27;100032.88;;;1.31;78.50
63500;BME280;49654;51.142;14.924;2023-01-28T04:58:54;100041.84;;;1.38;78.77
63500;BME280;49654;51.142;14.924;2023-01-28T05:01:21;100043.69;;;1.22;78.76
63500;BME280;49654;51.142;14.924;2023-01-28T05:03:48;100040.28;;;1.36;79.17
63500;BME280;49654;51.142;14.924;2023-01-28T05:06:15;99969.16;;;0.99;78.82
63500;BME280;49654;51.142;14.924;2023-01-28T05:08:42;100014.25;;;1.15;79.11
63500;BME280;49654;51.142;14.924;2023-01-28T05:11:10;100045.31;;;1.37;78.62
63500;BME280;49654;51.142;14.924;2023-01-28T05:13:39;100043.59;;;1.38;78.98
63500;BME280;49654;51.142;14.924;2023-01-28T05:16:06;100057.56;;;1.32;78.67
63500;BME280;49654;51.142;14.924;2023-01-28T05:18:33;100061.50;;;1.38;78.54
63500;BME280;49654;51.142;14.924;2023-01-28T05:21:00;100043.59;;;1.23;78.55
63500;BME280;49654;51.142;14.924;2023-01-28T05:23:26;100048.81;;;0.93;79.42
63500;BME280;49654;51.142;14.924;2023-01-28T05:25:53;100022.50;;;0.91;79.57
63500;BME280;49654;51.142;14.924;2023-01-28T05:28:20;100017.69;;;0.87;79.37
63500;BME280;49654;51.142;14.924;2023-01-28T05:30:48;100054.19;;;1.17;78.97
63500;BME280;49654;51.142;14.924;2023-01-28T05:33:15;100063.59;;;1.31;79.02
63500;BME280;49654;51.142;14.924;2023-01-28T05:35:42;100058.38;;;1.33;78.89
63500;BME280;49654;51.142;14.924;2023-01-28T05:38:09;100066.44;;;1.27;78.70
63500;BME280;49654;51.142;14.924;2023-01-28T05:40:36;100066.47;;;1.12;78.52
63500;BME280;49654;51.142;14.924;2023-01-28T05:43:03;100066.59;;;1.23;78.69
63500;BME280;49654;51.142;14.924;2023-01-28T05:45:30;100068.81;;;1.15;78.55
63500;BME280;49654;51.142;14.924;2023-01-28T05:47:58;100059.59;;;1.13;78.47
63500;BME280;49654;51.142;14.924;2023-01-28T05:50:25;100037.47;;;0.97;78.52
63500;BME280;49654;51.142;14.924;2023-01-28T05:52:52;100071.19;;;1.18;78.51
63500;BME280;49654;51.142;14.924;2023-01-28T05:55:19;100058.13;;;1.09;78.28
63500;BME280;49654;51.142;14.924;2023-01-28T05:57:46;100056.56;;;1.06;78.32
63500;BME280;49654;51.142;14.924;2023-01-28T06:00:14;100078.50;;;0.82;77.84
63500;BME280;49654;51.142;14.924;2023-01-28T06:02:41;100065.88;;;0.93;78.36
63500;BME280;49654;51.142;14.924;2023-01-28T06:05:10;100070.47;;;1.02;78.33
63500;BME280;49654;51.142;14.924;2023-01-28T06:07:37;100057.78;;;1.00;78.52
63500;BME280;49654;51.142;14.924;2023-01-28T06:10:05;100045.44;;;0.93;77.84
63500;BME280;49654;51.142;14.924;2023-01-28T06:12:32;100067.00;;;1.03;78.23
63500;BME280;49654;51.142;14.924;2023-01-28T06:14:59;100083.06;;;0.91;77.91
63500;BME280;49654;51.142;14.924;2023-01-28T06:17:26;100088.28;;;1.04;77.97
63500;BME280;49654;51.142;14.924;2023-01-28T06:19:53;100092.38;;;1.06;77.32
63500;BME280;49654;51.142;14.924;2023-01-28T06:22:21;100063.72;;;0.87;78.09
63500;BME280;49654;51.142;14.924;2023-01-28T06:24:48;100095.22;;;1.02;77.86
63500;BME280;49654;51.142;14.924;2023-01-28T06:27:15;100096.22;;;1.13;77.32
63500;BME280;49654;51.142;14.924;2023-01-28T06:29:42;100077.03;;;0.92;77.48
63500;BME280;49654;51.142;14.924;2023-01-28T06:32:09;100099.41;;;1.03;78.26
63500;BME280;49654;51.142;14.924;2023-01-28T06:34:35;100104.00;;;1.26;77.75
63500;BME280;49654;51.142;14.924;2023-01-28T06:37:02;100067.97;;;0.58;78.28
63500;BME280;49654;51.142;14.924;2023-01-28T06:39:31;100094.56;;;0.84;78.85
63500;BME280;49654;51.142;14.924;2023-01-28T06:41:58;100116.31;;;0.91;78.70
63500;BME280;49654;51.142;14.924;2023-01-28T06:44:26;100117.06;;;0.63;78.83
63500;BME280;49654;51.142;14.924;2023-01-28T06:46:52;100125.28;;;0.54;78.72
63500;BME280;49654;51.142;14.924;2023-01-28T06:49:19;100116.25;;;0.62;78.99
63500;BME280;49654;51.142;14.924;2023-01-28T06:51:46;100131.06;;;0.71;78.54
63500;BME280;49654;51.142;14.924;2023-01-28T06:54:13;100128.13;;;0.63;79.15
63500;BME280;49654;51.142;14.924;2023-01-28T06:56:42;100131.72;;;0.75;78.90
63500;BME280;49654;51.142;14.924;2023-01-28T06:59:08;100051.56;;;0.32;78.45
63500;BME280;49654;51.142;14.924;2023-01-28T07:01:35;100138.16;;;0.96;77.45
63500;BME280;49654;51.142;14.924;2023-01-28T07:04:03;100094.13;;;0.47;77.62
63500;BME280;49654;51.142;14.924;2023-01-28T07:06:30;100144.59;;;0.43;78.51
63500;BME280;49654;51.142;14.924;2023-01-28T07:08:56;100135.72;;;0.35;79.13
63500;BME280;49654;51.142;14.924;2023-01-28T07:11:24;100143.44;;;0.49;79.38
63500;BME280;49654;51.142;14.924;2023-01-28T07:13:52;100096.47;;;-0.10;79.24
63500;BME280;49654;51.142;14.924;2023-01-28T07:16:19;100136.69;;;0.48;78.65
63500;BME280;49654;51.142;14.924;2023-01-28T07:18:46;100143.28;;;0.66;78.34
63500;BME280;49654;51.142;14.924;2023-01-28T07:21:12;100146.91;;;0.92;77.55
63500;BME280;49654;51.142;14.924;2023-01-28T07:23:39;100147.00;;;0.91;76.73
63500;BME280;49654;51.142;14.924;2023-01-28T07:26:06;100150.97;;;0.66;77.27
63500;BME280;49654;51.142;14.924;2023-01-28T07:28:33;100152.66;;;0.52;77.33
63500;BME280;49654;51.142;14.924;2023-01-28T07:31:01;100152.53;;;0.39;77.93
63500;BME280;49654;51.142;14.924;2023-01-28T07:33:28;100144.47;;;0.31;76.99
63500;BME280;49654;51.142;14.924;2023-01-28T07:35:55;100148.25;;;0.23;77.52
63500;BME280;49654;51.142;14.924;2023-01-28T07:38:22;100151.97;;;0.18;77.47
63500;BME280;49654;51.142;14.924;2023-01-28T07:40:49;100146.94;;;0.32;77.66
63500;BME280;49654;51.142;14.924;2023-01-28T07:43:16;100138.84;;;0.40;77.73
63500;BME280;49654;51.142;14.924;2023-01-28T07:45:43;100146.53;;;0.54;77.04
63500;BME280;49654;51.142;14.924;2023-01-28T07:48:12;100124.84;;;0.31;76.48
63500;BME280;49654;51.142;14.924;2023-01-28T07:50:39;100155.66;;;0.28;76.46
63500;BME280;49654;51.142;14.924;2023-01-28T07:53:08;100151.94;;;0.64;76.45
63500;BME280;49654;51.142;14.924;2023-01-28T07:55:36;100091.28;;;0.37;75.88
63500;BME280;49654;51.142;14.924;2023-01-28T07:58:05;100159.75;;;0.77;75.41
63500;BME280;49654;51.142;14.924;2023-01-28T08:00:34;100160.88;;;0.87;75.26
63500;BME280;49654;51.142;14.924;2023-01-28T08:03:02;100166.81;;;0.87;74.74
63500;BME280;49654;51.142;14.924;2023-01-28T08:05:37;100161.53;;;0.90;74.23
63500;BME280;49654;51.142;14.924;2023-01-28T08:08:08;100148.53;;;0.79;74.09
63500;BME280;49654;51.142;14.924;2023-01-28T08:10:35;100136.63;;;0.64;74.51
63500;BME280;49654;51.142;14.924;2023-01-28T08:13:03;100162.09;;;0.95;73.70
63500;BME280;49654;51.142;14.924;2023-01-28T08:15:30;100170.25;;;1.16;73.72
63500;BME280;49654;51.142;14.924;2023-01-28T08:17:58;100065.50;;;0.70;73.71
63500;BME280;49654;51.142;14.924;2023-01-28T08:20:26;100164.00;;;1.06;72.11
63500;BME280;49654;51.142;14.924;2023-01-28T08:23:05;100169.34;;;1.32;72.40
63500;BME280;49654;51.142;14.924;2023-01-28T08:25:32;100123.44;;;1.00;72.50
63500;BME280;49654;51.142;14.924;2023-01-28T08:27:59;100172.63;;;1.34;72.54
63500;BME280;49654;51.142;14.924;2023-01-28T08:30:26;100145.66;;;0.99;72.82
63500;BME280;49654;51.142;14.924;2023-01-28T08:32:54;100164.91;;;0.91;72.35
63500;BME280;49654;51.142;14.924;2023-01-28T08:35:21;100173.13;;;0.82;73.71
63500;BME280;49654;51.142;14.924;2023-01-28T08:37:48;100174.16;;;1.08;73.03
63500;BME280;49654;51.142;14.924;2023-01-28T08:40:17;100172.53;;;0.77;72.39
63500;BME280;49654;51.142;14.924;2023-01-28T08:42:46;100180.44;;;1.02;72.49
63500;BME280;49654;51.142;14.924;2023-01-28T08:45:13;100179.13;;;0.81;72.71
63500;BME280;49654;51.142;14.924;2023-01-28T08:47:46;100190.03;;;0.98;72.57
63500;BME280;49654;51.142;14.924;2023-01-28T08:50:14;100183.19;;;0.99;72.33
63500;BME280;49654;51.142;14.924;2023-01-28T08:52:41;100180.16;;;0.92;71.87
63500;BME280;49654;51.142;14.924;2023-01-28T08:55:09;100180.97;;;0.93;70.93
63500;BME280;49654;51.142;14.924;2023-01-28T08:57:38;100187.75;;;0.64;72.06
63500;BME280;49654;51.142;14.924;2023-01-28T09:00:06;100143.81;;;0.57;72.60
63500;BME280;49654;51.142;14.924;2023-01-28T09:02:35;100196.31;;;0.93;70.85
63500;BME280;49654;51.142;14.924;2023-01-28T09:05:03;100197.34;;;0.90;72.15
63500;BME280;49654;51.142;14.924;2023-01-28T09:07:31;100187.13;;;0.90;72.03
63500;BME280;49654;51.142;14.924;2023-01-28T09:09:58;100203.84;;;0.96;71.30
63500;BME280;49654;51.142;14.924;2023-01-28T09:12:25;100191.72;;;0.69;71.69
63500;BME280;49654;51.142;14.924;2023-01-28T09:14:53;100212.81;;;0.73;71.60
63500;BME280;49654;51.142;14.924;2023-01-28T09:17:20;100180.47;;;0.72;71.71
63500;BME280;49654;51.142;14.924;2023-01-28T09:19:47;100212.63;;;0.76;71.53
63500;BME280;49654;51.142;14.924;2023-01-28T09:22:14;100209.50;;;1.01;71.62
63500;BME280;49654;51.142;14.924;2023-01-28T09:24:42;100194.41;;;0.96;71.04
63500;BME280;49654;51.142;14.924;2023-01-28T09:27:08;100178.78;;;0.87;70.35
63500;BME280;49654;51.142;14.924;2023-01-28T09:29:35;100221.44;;;1.45;70.29
63500;BME280;49654;51.142;14.924;2023-01-28T09:32:05;100228.84;;;1.21;70.46
63500;BME280;49654;51.142;14.924;2023-01-28T09:34:32;100219.91;;;0.98;70.22
63500;BME280;49654;51.142;14.924;2023-01-28T09:36:59;100230.00;;;1.15;70.26
63500;BME280;49654;51.142;14.924;2023-01-28T09:39:26;100232.63;;;0.99;70.50
63500;BME280;49654;51.142;14.924;2023-01-28T09:42:01;100235.91;;;0.71;70.54
63500;BME280;49654;51.142;14.924;2023-01-28T09:44:39;100225.63;;;0.57;71.33
63500;BME280;49654;51.142;14.924;2023-01-28T09:47:21;100230.41;;;0.93;71.12
63500;BME280;49654;51.142;14.924;2023-01-28T09:49:52;100214.09;;;0.80;70.49
63500;BME280;49654;51.142;14.924;2023-01-28T09:52:23;100245.72;;;1.23;69.25
63500;BME280;49654;51.142;14.924;2023-01-28T09:54:54;100240.91;;;1.33;69.79
63500;BME280;49654;51.142;14.924;2023-01-28T09:57:23;100245.38;;;1.30;69.21
63500;BME280;49654;51.142;14.924;2023-01-28T09:59:51;100245.94;;;1.49;69.09
63500;BME280;49654;51.142;14.924;2023-01-28T10:02:27;100231.25;;;1.53;67.40
63500;BME280;49654;51.142;14.924;2023-01-28T10:05:04;100245.97;;;1.63;67.95
63500;BME280;49654;51.142;14.924;2023-01-28T10:07:42;100220.81;;;1.41;67.35
63500;BME280;49654;51.142;14.924;2023-01-28T10:10:15;100245.59;;;1.84;67.33
63500;BME280;49654;51.142;14.924;2023-01-28T10:12:55;100237.91;;;1.69;66.08
63500;BME280;49654;51.142;14.924;2023-01-28T10:18:33;100245.06;;;1.50;66.35
63500;BME280;49654;51.142;14.924;2023-01-28T10:21:05;100189.06;;;1.58;67.11
63500;BME280;49654;51.142;14.924;2023-01-28T10:23:40;100207.88;;;2.00;65.82
63500;BME280;49654;51.142;14.924;2023-01-28T10:26:18;100238.22;;;2.62;67.66
63500;BME280;49654;51.142;14.924;2023-01-28T10:28:51;100203.81;;;2.51;64.62
63500;BME280;49654;51.142;14.924;2023-01-28T10:31:20;100233.69;;;2.65;63.99
63500;BME280;49654;51.142;14.924;2023-01-28T10:33:48;100230.63;;;2.33;62.41
63500;BME280;49654;51.142;14.924;2023-01-28T10:36:16;100230.84;;;2.43;63.42
63500;BME280;49654;51.142;14.924;2023-01-28T10:38:43;100245.47;;;2.28;62.92
63500;BME280;49654;51.142;14.924;2023-01-28T10:41:16;100238.47;;;2.30;62.54
63500;BME280;49654;51.142;14.924;2023-01-28T10:43:45;100218.72;;;2.18;63.53
63500;BME280;49654;51.142;14.924;2023-01-28T10:46:16;100236.38;;;2.22;63.72
63500;BME280;49654;51.142;14.924;2023-01-28T10:48:46;100237.94;;;2.25;63.16
63500;BME280;49654;51.142;14.924;2023-01-28T10:51:15;100241.25;;;2.27;62.57
63500;BME280;49654;51.142;14.924;2023-01-28T10:53:44;100248.25;;;2.65;62.31
63500;BME280;49654;51.142;14.924;2023-01-28T10:56:15;100254.16;;;2.53;62.70
63500;BME280;49654;51.142;14.924;2023-01-28T10:58:50;100250.69;;;2.81;62.02
63500;BME280;49654;51.142;14.924;2023-01-28T11:01:19;100251.63;;;2.80;62.87
63500;BME280;49654;51.142;14.924;2023-01-28T11:03:54;100244.53;;;2.56;62.40
63500;BME280;49654;51.142;14.924;2023-01-28T11:06:27;100215.03;;;2.63;62.40
63500;BME280;49654;51.142;14.924;2023-01-28T11:08:55;100259.56;;;3.02;60.69
63500;BME280;49654;51.142;14.924;2023-01-28T11:11:24;100252.56;;;2.91;61.21
63500;BME280;49654;51.142;14.924;2023-01-28T11:13:52;100262.78;;;2.51;61.26
63500;BME280;49654;51.142;14.924;2023-01-28T11:16:23;100256.19;;;2.20;62.35
63500;BME280;49654;51.142;14.924;2023-01-28T11:18:53;100171.16;;;1.44;60.68
63500;BME280;49654;51.142;14.924;2023-01-28T11:21:22;100254.56;;;1.91;63.89
63500;BME280;49654;51.142;14.924;2023-01-28T11:23:53;100250.28;;;2.33;63.21
63500;BME280;49654;51.142;14.924;2023-01-28T11:26:22;100253.78;;;2.32;61.22
63500;BME280;49654;51.142;14.924;2023-01-28T11:28:52;100245.81;;;2.63;60.39
63500;BME280;49654;51.142;14.924;2023-01-28T11:31:20;100241.66;;;2.07;58.49
63500;BME280;49654;51.142;14.924;2023-01-28T11:33:49;100240.22;;;2.30;58.40
63500;BME280;49654;51.142;14.924;2023-01-28T11:36:20;100187.06;;;1.49;58.71
63500;BME280;49654;51.142;14.924;2023-01-28T11:38:50;100239.19;;;1.91;58.59
63500;BME280;49654;51.142;14.924;2023-01-28T11:41:27;100229.13;;;2.02;58.88
63500;BME280;49654;51.142;14.924;2023-01-28T11:43:54;100239.84;;;1.94;57.80
63500;BME280;49654;51.142;14.924;2023-01-28T11:46:37;100242.88;;;1.72;60.05
63500;BME280;49654;51.142;14.924;2023-01-28T11:49:17;100225.09;;;1.41;61.30
63500;BME280;49654;51.142;14.924;2023-01-28T11:51:53;100220.44;;;1.47;59.00
63500;BME280;49654;51.142;14.924;2023-01-28T11:54:36;100246.59;;;1.67;60.23
63500;BME280;49654;51.142;14.924;2023-01-28T11:57:21;100253.84;;;1.60;60.27
63500;BME280;49654;51.142;14.924;2023-01-28T11:59:55;100224.47;;;1.66;60.09
63500;BME280;49654;51.142;14.924;2023-01-28T12:02:37;100249.63;;;1.59;61.06
63500;BME280;49654;51.142;14.924;2023-01-28T12:05:18;100236.81;;;1.45;59.27
63500;BME280;49654;51.142;14.924;2023-01-28T12:07:53;100245.31;;;1.45;60.36
63500;BME280;49654;51.142;14.924;2023-01-28T12:10:25;100259.03;;;1.44;60.70
63500;BME280;49654;51.142;14.924;2023-01-28T12:13:09;100250.41;;;1.31;61.03
63500;BME280;49654;51.142;14.924;2023-01-28T12:16:02;100247.41;;;1.39;61.43
63500;BME280;49654;51.142;14.924;2023-01-28T12:21:58;100217.94;;;0.57;61.49
63500;BME280;49654;51.142;14.924;2023-01-28T12:24:40;100248.09;;;0.82;59.83
63500;BME280;49654;51.142;14.924;2023-01-28T12:27:24;100260.69;;;1.15;60.99
63500;BME280;49654;51.142;14.924;2023-01-28T12:30:03;100236.03;;;0.84;60.08
63500;BME280;49654;51.142;14.924;2023-01-28T12:32:43;100245.03;;;0.75;60.58
63500;BME280;49654;51.142;14.924;2023-01-28T12:35:30;100241.34;;;1.25;61.22
63500;BME280;49654;51.142;14.924;2023-01-28T12:38:07;100175.16;;;0.91;58.21
63500;BME280;49654;51.142;14.924;2023-01-28T12:40:46;100237.72;;;1.58;59.01
63500;BME280;49654;51.142;14.924;2023-01-28T12:43:20;100230.34;;;1.68;59.08
63500;BME280;49654;51.142;14.924;2023-01-28T12:45:54;100232.06;;;1.82;59.14
63500;BME280;49654;51.142;14.924;2023-01-28T12:48:26;100230.88;;;1.59;59.55
63500;BME280;49654;51.142;14.924;2023-01-28T12:50:59;100230.97;;;1.71;60.38
63500;BME280;49654;51.142;14.924;2023-01-28T12:53:36;100218.25;;;1.56;59.04
63500;BME280;49654;51.142;14.924;2023-01-28T12:56:08;100225.19;;;1.39;60.53
63500;BME280;49654;51.142;14.924;2023-01-28T12:58:44;100221.97;;;1.36;61.15
63500;BME280;49654;51.142;14.924;2023-01-28T13:01:17;100222.34;;;1.30;61.78
63500;BME280;49654;51.142;14.924;2023-01-28T13:03:51;100236.69;;;1.18;61.64
63500;BME280;49654;51.142;14.924;2023-01-28T13:06:24;100213.44;;;1.07;61.94
63500;BME280;49654;51.142;14.924;2023-01-28T13:08:58;100225.41;;;1.06;61.64
63500;BME280;49654;51.142;14.924;2023-01-28T13:11:32;100227.84;;;0.93;62.03
63500;BME280;49654;51.142;14.924;2023-01-28T13:14:00;100184.94;;;0.68;61.30
63500;BME280;49654;51.142;14.924;2023-01-28T13:16:29;100227.97;;;1.06;60.45